Time;durP1;ratioP1;P1;durP2;ratioP2;P2;SDS_P1;SDS_P2;PMS_P1;PMS_P2;Temp;Humidity;BMP_temperature;BMP_pressure;BME280_temperature;BME280_humidity;BME280_pressure;Samples;Min_cycle;Max_cycle;Signal;HPM_P1;HPM_P2
2022/08/12 00:43:16;;;;;;;0.10;0.10;;;20.50;91.80;;;20.77;63.76;100231.09;5011069;28;20211;-78
2022/08/12 00:49:11;;;;;;;0.22;0.22;;;20.40;93.10;;;20.44;65.20;100225.97;5013451;28;20208;-78
2022/08/12 00:52:05;;;;;;;0.10;0.10;;;20.20;92.40;;;20.60;64.32;100237.06;5012598;28;20203;-78
2022/08/12 00:55:00;;;;;;;0.10;0.10;;;20.30;92.70;;;20.69;63.56;100257.34;5001342;28;20204;-78
2022/08/12 00:57:50;;;;;;;0.00;0.00;;;20.30;91.90;;;20.75;63.05;100260.69;5000197;28;20224;-79
2022/08/12 01:00:41;;;;;;;0.10;0.10;;;20.30;92.30;;;20.82;63.90;100273.94;5013120;28;20227;-78
2022/08/12 01:13:01;;;;;;;0.10;0.10;;;20.00;94.10;;;20.08;66.54;100273.69;5005797;28;20289;-78
2022/08/12 01:16:08;;;;;;;0.00;0.00;;;19.90;94.80;;;19.99;68.04;100298.16;5011188;28;20216;-79
2022/08/12 01:18:57;;;;;;;0.10;0.10;;;19.90;95.00;;;20.09;66.98;100325.59;5013546;28;20556;-78
2022/08/12 01:22:24;;;;;;;0.10;0.10;;;19.90;96.00;;;19.80;70.23;100356.91;5011956;28;20770;-78
2022/08/12 01:25:17;;;;;;;0.10;0.10;;;19.70;95.60;;;19.65;69.42;100340.38;5007152;28;20660;-79
2022/08/12 01:28:11;;;;;;;0.10;0.10;;;19.50;96.20;;;19.28;69.11;100321.72;4995106;28;20224;-79
2022/08/12 01:31:04;;;;;;;0.10;0.10;;;19.40;95.70;;;19.61;67.27;100360.16;5013441;28;20208;-79
2022/08/12 01:34:11;;;;;;;0.05;0.05;;;19.50;96.40;;;19.87;67.05;100392.47;5013488;28;20204;-78
2022/08/12 01:37:23;;;;;;;0.13;0.13;;;19.50;97.60;;;19.45;72.63;100424.03;5012929;28;20219;-79
2022/08/12 01:40:15;;;;;;;0.10;0.10;;;19.40;96.90;;;19.58;68.85;100411.22;5002342;28;20208;-78
2022/08/12 01:43:26;;;;;;;0.10;0.10;;;19.40;96.40;;;19.52;68.20;100389.91;5013018;28;20207;-79
2022/08/12 01:46:37;;;;;;;0.10;0.10;;;19.00;96.80;;;19.42;67.82;100387.44;5009122;28;20592;-78
2022/08/12 01:50:04;;;;;;;0.25;0.25;;;19.30;98.90;;;19.24;70.67;100428.16;5003948;28;20215;-78
2022/08/12 01:53:10;;;;;;;0.10;0.10;;;19.10;97.10;;;19.43;67.48;100415.16;5012816;28;20271;-79
2022/08/12 01:55:59;;;;;;;0.10;0.10;;;19.10;97.50;;;19.50;67.63;100417.66;5000162;28;20214;-78
2022/08/12 02:02:03;;;;;;;0.00;0.00;;;19.20;98.30;;;19.35;68.52;100431.44;5004858;28;20235;-78
2022/08/12 02:12:07;;;;;;;0.10;0.10;;;18.80;99.40;;;19.04;69.56;100442.09;5012228;28;20214;-78
2022/08/12 02:15:21;;;;;;;0.10;0.10;;;18.80;99.90;;;18.91;70.93;100454.03;5011147;28;20211;-79
2022/08/12 02:18:44;;;;;;;0.10;0.10;;;18.90;99.70;;;19.40;68.34;100495.69;5002675;28;20600;-78
2022/08/12 02:21:46;;;;;;;0.10;0.10;;;18.90;99.90;;;19.14;70.39;100505.28;5003557;28;20232;-79
2022/08/12 02:24:38;;;;;;;0.10;0.10;;;18.90;99.90;;;19.28;69.01;100491.53;5011957;28;20203;-78
2022/08/12 02:27:33;;;;;;;0.10;0.10;;;18.90;99.90;;;19.10;70.39;100510.75;5001199;28;20239;-78
2022/08/12 02:30:30;;;;;;;0.10;0.10;;;18.90;99.90;;;19.23;70.56;100520.25;5011718;28;20219;-80
2022/08/12 02:33:31;;;;;;;0.10;0.10;;;18.80;99.90;;;19.06;69.57;100483.13;5005740;28;20211;-78
2022/08/12 02:36:19;;;;;;;0.10;0.10;;;18.80;99.90;;;18.77;72.78;100501.72;4995724;28;20201;-78
2022/08/12 02:39:14;;;;;;;0.10;0.10;;;18.70;99.90;;;18.87;70.31;100489.88;5003785;28;20208;-78
2022/08/12 02:42:05;;;;;;;0.10;0.10;;;18.70;99.90;;;18.76;71.96;100510.69;5008876;28;20223;-78
2022/08/12 02:44:55;;;;;;;0.10;0.10;;;18.50;99.90;;;18.33;73.72;100495.53;5005031;28;20208;-78
2022/08/12 02:47:46;;;;;;;0.10;0.10;;;18.40;99.90;;;18.58;71.74;100498.56;4996639;28;20236;-78
2022/08/12 02:50:51;;;;;;;0.10;0.10;;;18.40;99.90;;;18.66;71.54;100528.75;5005308;28;20675;-78
2022/08/12 02:53:40;;;;;;;0.10;0.10;;;18.40;99.90;;;19.01;70.18;100557.44;5005718;28;20231;-78
2022/08/12 02:56:29;;;;;;;0.10;0.10;;;18.50;99.90;;;18.86;70.26;100545.25;5009331;28;20212;-78
2022/08/12 02:59:25;;;;;;;0.10;0.10;;;18.40;99.90;;;18.59;72.67;100545.84;5012121;28;20215;-79
2022/08/12 03:02:15;;;;;;;0.10;0.10;;;18.40;99.90;;;18.40;73.13;100534.66;4987186;28;20251;-78
2022/08/12 03:05:05;;;;;;;0.10;0.10;;;18.20;99.90;;;18.42;73.33;100550.69;5004842;28;20224;-78
2022/08/12 03:07:59;;;;;;;0.10;0.10;;;18.30;99.90;;;18.59;73.34;100583.34;5008454;28;20597;-77
2022/08/12 03:10:49;;;;;;;0.10;0.10;;;18.10;99.90;;;18.11;74.68;100566.47;5001510;28;20199;-78
2022/08/12 03:13:45;;;;;;;0.10;0.10;;;18.10;99.90;;;18.17;76.20;100601.16;5008532;28;20215;-78
2022/08/12 03:16:33;;;;;;;0.10;0.10;;;18.10;99.90;;;18.30;74.69;100609.84;5001925;28;20228;-78
2022/08/12 03:19:25;;;;;;;0.10;0.10;;;18.10;99.90;;;18.26;73.42;100594.75;5010846;28;20208;-79
2022/08/12 03:22:13;;;;;;;0.10;0.10;;;;;;;17.99;75.04;100599.69;4994383;28;20232;-79
2022/08/12 03:25:04;;;;;;;0.10;0.10;;;;;;;18.02;75.16;100621.06;4994643;28;20247;-78
2022/08/12 03:27:55;;;;;;;0.10;0.10;;;18.00;99.90;;;18.06;74.57;100628.13;5008664;28;20229;-78
2022/08/12 03:30:49;;;;;;;0.10;0.10;;;18.00;99.90;;;18.31;73.92;100666.03;5006054;28;20214;-78
2022/08/12 03:33:46;;;;;;;0.10;0.10;;;18.00;99.90;;;18.19;74.54;100661.78;5005934;28;20208;-78
2022/08/12 03:36:53;;;;;;;0.00;0.00;;;17.90;99.90;;;18.01;76.72;100680.84;4999637;28;20597;-78
2022/08/12 03:39:44;;;;;;;0.10;0.10;;;17.80;99.90;;;17.60;77.93;100668.13;5006368;28;20200;-79
2022/08/12 03:42:40;;;;;;;0.10;0.10;;;17.70;99.90;;;17.96;76.26;100687.19;5010081;28;20231;-79
2022/08/12 04:01:08;;;;;;;0.10;0.10;;;17.50;99.90;;;17.53;77.35;100726.16;5009099;28;20618;-79
2022/08/12 04:04:00;;;;;;;0.10;0.10;;;17.50;99.90;;;17.54;78.98;100753.78;5010549;28;20211;-78
2022/08/12 04:06:50;;;;;;;0.10;0.10;;;17.40;99.90;;;17.55;76.02;100735.06;5011240;28;20231;-80
2022/08/12 04:09:43;;;;;;;0.10;0.10;;;17.40;99.90;;;17.64;75.45;100744.72;5016657;28;20208;-82
2022/08/12 04:15:39;;;;;;;0.10;0.10;;;17.50;99.90;;;17.50;75.51;100728.88;5015616;28;20199;-82
2022/08/12 04:18:29;;;;;;;0.55;0.55;;;17.40;99.90;;;17.55;76.01;100740.41;4997638;28;20231;-82
2022/08/12 04:21:18;;;;;;;0.10;0.10;;;;;;;17.47;76.33;100734.28;5008884;28;20205;-82
2022/08/12 04:24:06;;;;;;;0.10;0.10;;;;;;;17.31;76.55;100729.16;5016041;28;20208;-82
2022/08/12 04:26:55;;;;;;;0.10;0.10;;;;;;;17.36;75.62;100730.88;4987747;28;20223;-83
2022/08/12 04:29:44;;;;;;;0.10;0.10;;;;;;;17.63;75.48;100766.16;5015723;28;20215;-84
2022/08/12 04:32:52;;;;;;;0.10;0.10;;;;;;;17.41;76.92;100768.25;5000521;28;20216;-80
2022/08/12 04:35:41;;;;;;;0.10;0.10;;;;;;;17.40;76.50;100753.09;5014109;28;20687;-79
2022/08/12 04:38:30;;;;;;;0.10;0.10;;;17.20;99.90;;;17.56;74.94;100760.88;5008689;28;20220;-80
2022/08/12 04:41:19;;;;;;;0.10;0.10;;;17.30;99.90;;;17.59;74.85;100770.66;5000879;28;20204;-81
2022/08/12 04:44:09;;;;;;;0.20;0.20;;;17.30;99.90;;;17.76;74.02;100765.09;5006291;28;20200;-80
2022/08/12 04:46:58;;;;;;;0.10;0.10;;;17.40;99.90;;;17.86;73.67;100778.31;5008315;28;20235;-81
2022/08/12 04:49:48;;;;;;;0.10;0.10;;;;;;;17.80;74.38;100773.03;5007328;28;20211;-82
2022/08/12 04:52:36;;;;;;;0.10;0.10;;;17.50;99.90;;;17.88;74.21;100772.94;5013268;28;20216;-81
2022/08/12 04:55:25;;;;;;;0.10;0.10;;;;;;;17.82;74.24;100767.66;5009929;28;20209;-81
2022/08/12 04:58:13;;;;;;;0.10;0.10;;;;;;;17.83;74.25;100764.97;5014976;28;20228;-82
2022/08/12 05:01:17;;;;;;;0.10;0.10;;;17.60;99.90;;;18.01;74.36;100781.66;4984320;28;20247;-80
2022/08/12 05:04:08;;;;;;;0.10;0.10;;;17.60;99.90;;;17.92;75.34;100782.69;4965337;28;20214;-80
2022/08/12 05:06:56;;;;;;;0.10;0.10;;;17.70;99.90;;;17.98;74.63;100787.94;4937738;28;20222;-80
2022/08/12 05:09:45;;;;;;;0.10;0.10;;;17.60;99.90;;;17.98;75.81;100801.31;4956373;28;20206;-80
2022/08/12 05:12:55;;;;;;;0.10;0.10;;;17.60;99.90;;;18.11;73.85;100800.22;4957553;29;20214;-81
2022/08/12 05:15:44;;;;;;;0.10;0.10;;;;;;;18.16;73.97;100805.50;4954739;29;20213;-80
2022/08/12 05:18:52;;;;;;;0.85;0.50;;;;;;;18.22;73.71;100808.09;4947961;28;20206;-80
2022/08/12 05:21:45;;;;;;;0.10;0.10;;;17.80;99.90;;;18.35;73.11;100815.00;4959713;29;20202;-80
2022/08/12 05:24:34;;;;;;;0.10;0.10;;;;;;;18.52;73.03;100830.81;4956044;29;20209;-80
2022/08/12 05:27:22;;;;;;;0.10;0.10;;;;;;;18.65;72.25;100835.06;4955697;28;20230;-79
2022/08/12 05:30:11;;;;;;;0.10;0.10;;;18.10;99.90;;;18.70;72.79;100840.34;4953367;28;20217;-80
2022/08/12 05:33:05;;;;;;;0.10;0.10;;;18.20;99.90;;;18.76;72.21;100835.75;4957391;29;20221;-80
2022/08/12 05:35:53;;;;;;;0.10;0.10;;;;;;;18.91;72.08;100844.44;4960160;28;20198;-79
2022/08/12 05:38:56;;;;;;;0.10;0.10;;;18.40;99.90;;;19.00;72.55;100863.91;4952862;28;20198;-79
2022/08/12 05:41:44;;;;;;;0.10;0.10;;;18.50;99.90;;;19.05;72.34;100853.09;4954414;28;20222;-79
2022/08/12 05:44:33;;;;;;;0.10;0.10;;;;;;;19.23;72.23;100867.94;4934064;29;20226;-80
2022/08/12 05:47:21;;;;;;;0.10;0.10;;;;;;;19.42;71.98;100882.75;4956307;28;20233;-79
2022/08/12 05:50:25;;;;;;;0.20;0.20;;;;;;;19.46;72.25;100879.09;4956448;28;20209;-79
2022/08/12 05:53:14;;;;;;;0.10;0.10;;;;;;;19.50;71.99;100880.78;4950143;28;20206;-80
2022/08/12 05:56:03;;;;;;;0.10;0.10;;;19.00;99.90;;;19.69;72.02;100890.28;4953664;28;20222;-80
2022/08/12 05:58:52;;;;;;;0.10;0.10;;;19.20;99.90;;;19.81;71.59;100884.66;4942438;29;20209;-80
2022/08/12 06:01:41;;;;;;;0.10;0.10;;;19.50;99.90;;;19.90;71.62;100888.94;4957745;28;20215;-80
2022/08/12 06:04:50;;;;;;;0.00;0.00;;;;;;;20.01;72.00;100894.06;4952790;29;20206;-80
2022/08/12 06:07:44;;;;;;;0.10;0.10;;;19.50;99.90;;;20.08;71.93;100895.69;4955282;28;20221;-81
2022/08/12 06:10:50;;;;;;;0.10;0.10;;;19.60;99.90;;;20.25;71.30;100892.63;4950825;29;20207;-80
2022/08/12 06:13:40;;;;;;;0.10;0.10;;;19.60;99.90;;;20.27;70.66;100877.34;4937788;29;20206;-81
2022/08/12 06:16:45;;;;;;;0.10;0.10;;;;;;;20.32;71.62;100886.19;4956111;29;20236;-80
2022/08/12 06:19:34;;;;;;;0.00;0.00;;;19.80;99.90;;;20.38;70.81;100869.94;4954152;28;20210;-80
2022/08/12 06:22:44;;;;;;;0.10;0.10;;;19.90;99.90;;;20.39;70.67;100872.59;4961848;28;20224;-79
2022/08/12 06:25:33;;;;;;;0.10;0.10;;;19.90;99.90;;;20.55;71.29;100877.59;4954216;28;20202;-80
2022/08/12 06:28:21;;;;;;;0.10;0.10;;;20.00;99.90;;;20.56;71.25;100874.00;4937835;28;20240;-81
2022/08/12 06:31:15;;;;;;;0.10;0.10;;;20.10;99.90;;;20.77;71.06;100889.56;4934711;28;20213;-81
2022/08/12 06:34:14;;;;;;;0.10;0.10;;;20.20;99.90;;;20.90;71.22;100887.47;4952877;28;20214;-81
2022/08/12 06:37:23;;;;;;;0.10;0.10;;;;;;;20.86;72.04;100877.72;4951314;28;20218;-80
2022/08/12 06:40:13;;;;;;;0.10;0.10;;;20.40;99.90;;;21.00;71.46;100883.63;4956992;28;20237;-80
2022/08/12 06:43:03;;;;;;;0.10;0.10;;;20.50;99.90;;;21.06;71.10;100876.28;4955963;28;20233;-79
2022/08/12 06:45:52;;;;;;;0.22;0.22;;;20.70;99.90;;;21.28;71.25;100887.38;4951868;28;20205;-79
2022/08/12 06:48:43;;;;;;;0.10;0.10;;;;;;;21.39;70.19;100877.19;4950108;28;20214;-80
2022/08/12 06:51:32;;;;;;;0.10;0.10;;;;;;;21.61;71.25;100895.41;4945846;28;20206;-79
2022/08/12 06:54:21;;;;;;;0.00;0.00;;;21.00;99.90;;;21.80;71.04;100888.53;4949368;28;20214;-79
2022/08/12 06:57:19;;;;;;;0.17;0.17;;;;;;;21.85;70.43;100878.53;4956135;28;20248;-77
2022/08/12 07:00:32;;;;;;;0.10;0.10;;;21.30;99.90;;;21.93;70.12;100863.00;4944744;28;20198;-79
2022/08/12 07:03:24;;;;;;;0.20;0.20;;;21.40;99.90;;;22.25;70.72;100882.72;4948989;28;20233;-78
2022/08/12 07:06:13;;;;;;;0.10;0.10;;;;;;;22.27;69.18;100846.72;4947255;28;20582;-79
2022/08/12 07:09:03;;;;;;;0.10;0.10;;;21.80;99.90;;;22.45;69.85;100856.00;4948077;28;20216;-78
2022/08/12 07:11:52;;;;;;;0.00;0.00;;;;;;;22.72;69.96;100858.72;4952455;28;20202;-80
2022/08/12 07:14:40;;;;;;;0.35;0.28;;;22.20;99.90;;;22.79;69.88;100854.88;4947828;28;20206;-80
2022/08/12 07:17:35;;;;;;;0.10;0.10;;;;;;;23.04;69.49;100849.53;4955865;28;20229;-78
2022/08/12 07:20:30;;;;;;;0.10;0.10;;;22.60;99.90;;;23.22;68.67;100841.66;4951878;29;20214;-79
2022/08/12 07:23:40;;;;;;;0.13;0.13;;;22.80;99.90;;;23.43;68.02;100823.81;4949568;28;20240;-83
2022/08/12 07:26:28;;;;;;;0.00;0.00;;;22.80;99.90;;;23.52;67.47;100809.97;4947685;28;20224;-77
2022/08/12 07:29:17;;;;;;;0.10;0.10;;;;;;;23.51;67.35;100793.81;4945848;28;20210;-80
2022/08/12 07:32:06;;;;;;;0.10;0.10;;;;;;;23.66;67.12;100793.25;4936136;28;20230;-83
2022/08/12 07:34:54;;;;;;;0.10;0.10;;;;;;;24.08;66.27;100792.47;4936381;28;20214;-79
2022/08/12 07:37:43;;;;;;;0.40;0.40;;;23.60;99.90;;;24.20;65.81;100786.56;4936246;28;20229;-81
2022/08/12 07:40:31;;;;;;;0.10;0.10;;;23.70;99.90;;;24.20;64.65;100752.31;4941784;28;20217;-79
2022/08/12 07:43:20;;;;;;;0.10;0.10;;;24.00;99.90;;;24.52;64.02;100736.56;4942642;28;20225;-78
2022/08/12 07:46:14;;;;;;;0.00;0.00;;;24.20;99.90;;;24.72;63.46;100730.31;4954781;28;20213;-82
2022/08/12 07:49:12;;;;;;;0.15;0.15;;;24.20;99.90;;;24.78;62.03;100682.22;4946283;28;20209;-78
2022/08/12 07:52:00;;;;;;;0.00;0.00;;;24.20;99.40;;;24.74;61.09;100636.44;4952658;29;20216;-79
2022/08/12 07:54:48;;;;;;;0.00;0.00;;;24.40;99.90;;;25.00;61.86;100646.09;4950255;28;20213;-78
2022/08/12 07:57:54;;;;;;;0.10;0.10;;;24.60;99.10;;;25.22;60.94;100627.88;4949946;28;20268;-78
2022/08/12 08:00:44;;;;;;;0.00;0.00;;;25.00;99.20;;;25.30;61.49;100609.44;4948411;28;20213;-78
2022/08/12 08:03:33;;;;;;;0.00;0.00;;;24.90;98.40;;;25.36;60.66;100590.16;4946271;28;20217;-79
2022/08/12 08:06:24;;;;;;;0.00;0.00;;;;;;;25.78;60.13;100599.81;4948169;28;20606;-79
2022/08/12 08:09:16;;;;;;;0.08;0.08;;;25.30;97.50;;;25.63;60.63;100538.28;4949774;28;20209;-83
2022/08/12 08:15:19;;;;;;;0.08;0.08;;;;;;;26.12;59.20;100539.34;4950968;28;20209;-79
2022/08/12 08:18:11;;;;;;;0.00;0.00;;;26.00;96.30;;;26.26;59.12;100512.38;4947203;28;20221;-80
2022/08/12 08:21:14;;;;;;;0.57;0.57;;;;;;;26.23;58.71;100481.84;4948398;28;20844;-78
2022/08/12 08:24:15;;;;;;;0.00;0.00;;;;;;;26.60;58.17;100486.13;4948358;28;20237;-81
2022/08/12 08:27:03;;;;;;;0.05;0.05;;;26.20;94.60;;;26.39;58.60;100439.41;4950389;28;20220;-83
2022/08/12 08:29:52;;;;;;;0.00;0.00;;;26.20;93.50;;;26.40;56.83;100390.50;4951403;28;20212;-78
2022/08/12 08:32:40;;;;;;;0.00;0.00;;;26.20;94.10;;;26.63;58.01;100410.88;4945259;28;20689;-78
2022/08/12 08:35:29;;;;;;;0.00;0.00;;;26.60;94.10;;;26.98;57.12;100429.69;4952621;28;20214;-78
2022/08/12 08:38:34;;;;;;;0.00;0.00;;;26.60;92.60;;;26.73;56.99;100351.53;4946590;28;20228;-79
2022/08/12 08:44:49;;;;;;;0.10;0.10;;;27.50;92.10;;;27.41;55.83;100352.84;4952288;28;20724;-79
2022/08/12 08:47:46;;;;;;;0.00;0.00;;;28.10;92.10;;;27.97;55.64;100350.25;4938595;28;20596;-80
2022/08/12 08:50:34;;;;;;;0.00;0.00;;;27.70;91.20;;;27.42;56.60;100275.84;4949747;28;20561;-79
2022/08/12 08:53:22;;;;;;;0.15;0.15;;;28.10;91.40;;;27.71;55.90;100292.16;4955640;28;20212;-78
2022/08/12 08:56:11;;;;;;;0.00;0.00;;;;;;;27.70;55.99;100266.81;4957618;28;20209;-84
2022/08/12 08:59:00;;;;;;;0.00;0.00;;;28.30;90.60;;;28.05;55.12;100282.69;4961234;28;20209;-79
2022/08/12 09:01:48;;;;;;;0.00;0.00;;;27.80;87.50;;;27.38;54.80;100143.94;4952944;28;20658;-79
2022/08/12 09:04:38;;;;;;;0.00;0.00;;;27.70;87.60;;;27.59;54.44;100159.78;4953131;28;20221;-79
2022/08/12 09:07:49;;;;;;;0.00;0.00;;;27.90;88.30;;;28.25;54.06;100208.84;4951097;28;20236;-79
2022/08/12 09:13:26;;;;;;;0.00;0.00;;;28.60;88.80;;;28.48;53.93;100222.72;4953761;28;20210;-81
2022/08/12 09:14:26;;;;;;;0.00;0.00;;;28.50;87.60;;;28.38;54.06;100175.38;4955298;28;20221;-78
2022/08/12 09:17:17;;;;;;;0.00;0.00;;;28.30;84.40;;;27.99;53.53;100085.53;4949808;28;20225;-78
2022/08/12 09:20:13;;;;;;;0.00;0.00;;;28.40;87.00;;;28.60;54.58;100162.88;4944578;28;20213;-78
2022/08/12 09:23:06;;;;;;;0.00;0.00;;;28.90;84.60;;;28.70;53.38;100143.22;4942428;28;20212;-79
2022/08/12 09:26:17;;;;;;;0.00;0.00;;;29.20;82.40;;;29.02;52.11;100127.34;4936591;28;20213;-78
2022/08/12 09:29:06;;;;;;;0.00;0.00;;;29.20;81.60;;;29.13;52.19;100114.69;4955789;28;20213;-78
2022/08/12 09:32:00;;;;;;;0.00;0.00;;;;;;;28.71;52.52;100025.25;4956977;28;20213;-82
2022/08/12 09:34:56;;;;;;;0.00;0.00;;;;;;;29.53;51.47;100095.44;4949985;28;20201;-78
2022/08/12 09:37:51;;;;;;;0.00;0.00;;;29.50;78.00;;;29.08;51.86;100012.53;4954744;28;20232;-81
2022/08/12 09:40:46;;;;;;;0.00;0.00;;;29.40;78.10;;;29.12;51.15;100004.03;4954697;28;20212;-77
2022/08/12 09:47:27;;;;;;;0.00;0.00;;;29.70;75.30;;;29.38;49.43;99950.31;4949709;28;20229;-79
2022/08/12 09:50:21;;;;;;;0.00;0.00;;;29.60;78.40;;;29.51;52.13;99983.84;4961656;28;20209;-78
2022/08/12 09:53:16;;;;;;;0.00;0.00;;;29.70;79.40;;;29.74;52.12;99997.53;4957905;28;20657;-80
2022/08/12 09:56:18;;;;;;;0.00;0.00;;;;;;;30.43;52.37;100055.78;4958270;28;20232;-78
2022/08/12 09:59:26;;;;;;;0.00;0.00;;;31.10;74.30;;;30.50;49.91;99975.19;4960556;28;20193;-78
2022/08/12 10:02:37;;;;;;;0.00;0.00;;;30.50;72.20;;;29.71;50.00;99859.66;4959449;28;20203;-78
2022/08/12 10:05:43;;;;;;;0.00;0.00;;;29.50;73.60;;;29.14;50.88;99825.09;4952126;28;20234;-77
2022/08/12 10:08:52;;;;;;;0.00;0.00;;;;;;;29.82;50.86;99900.56;4955215;28;20205;-78
2022/08/12 10:15:00;;;;;;;0.00;0.00;;;;;;;29.75;49.49;99828.44;4952367;28;20206;-80
2022/08/12 10:17:49;;;;;;;0.00;0.00;;;29.80;73.80;;;29.73;50.15;99830.44;4946028;28;20217;-78
2022/08/12 10:20:56;;;;;;;0.00;0.00;;;30.00;75.70;;;29.48;50.74;99817.03;4952614;28;20209;-77
2022/08/12 10:23:47;;;;;;;0.00;0.00;;;30.30;76.00;;;30.41;51.36;99900.41;4948326;29;20222;-77
2022/08/12 10:29:53;;;;;;;0.00;0.00;;;30.50;70.90;;;29.99;49.61;99787.47;4953385;29;20209;-77
2022/08/12 10:33:01;;;;;;;0.00;0.00;;;30.50;70.70;;;29.72;49.07;99740.63;4952679;29;20205;-77
2022/08/12 10:36:05;;;;;;;0.00;0.00;;;31.10;74.30;;;31.24;50.27;99899.03;4944920;29;20220;-78
2022/08/12 10:38:54;;;;;;;0.00;0.00;;;;;;;30.37;50.46;99808.88;4950410;29;20212;-80
2022/08/12 10:44:52;;;;;;;0.00;0.00;;;32.20;66.70;;;30.72;47.85;99754.09;4952559;28;20229;-79
2022/08/12 10:47:41;;;;;;;0.00;0.00;;;;;;;30.74;48.30;99753.97;4950622;28;20230;-81
2022/08/12 10:50:49;;;;;;;0.00;0.00;;;;;;;31.24;48.15;99800.69;4935732;28;20190;-84
2022/08/12 10:53:54;;;;;;;0.00;0.00;;;32.70;68.10;;;31.67;46.65;99789.59;4952588;28;20209;-78
2022/08/12 10:56:50;;;;;;;0.00;0.00;;;;;;;31.59;49.56;99801.19;4947209;28;20247;-85
2022/08/12 10:59:38;;;;;;;0.00;0.00;;;;;;;31.64;48.21;99784.38;4939707;28;20213;-88
2022/08/12 11:02:53;;;;;;;0.00;0.00;;;31.60;66.10;;;31.39;48.68;99741.97;4949046;28;20221;-77
2022/08/12 11:06:04;;;;;;;0.00;0.00;;;;;;;31.13;48.40;99727.81;4946475;28;20225;-80
2022/08/12 11:09:18;;;;;;;0.00;0.00;;;31.40;67.00;;;31.44;47.88;99745.16;4944437;28;20201;-78
2022/08/12 11:12:28;;;;;;;0.00;0.00;;;;;;;32.15;48.29;99801.63;4946361;28;20201;-83
2022/08/12 11:15:36;;;;;;;0.00;0.00;;;32.30;65.70;;;31.93;47.84;99769.00;4946991;28;20201;-78
2022/08/12 11:18:45;;;;;;;0.00;0.00;;;;;;;30.66;46.98;99596.34;4939777;28;20589;-84
2022/08/12 11:21:42;;;;;;;0.00;0.00;;;32.10;68.20;;;32.07;49.55;99787.75;4950022;28;20220;-79
2022/08/12 11:24:46;;;;;;;0.00;0.00;;;;;;;31.25;47.33;99655.78;4947280;28;20233;-82
2022/08/12 11:27:40;;;;;;;0.10;0.10;;;;;;;31.14;46.79;99642.13;5009830;23;20290;-77
2022/08/12 11:30:29;;;;;;;0.00;0.00;;;;;;;31.78;47.51;99702.03;5005017;28;20214;-79
2022/08/12 11:33:19;;;;;;;0.00;0.00;;;;;;;31.73;47.96;99709.78;5007304;28;20211;-79
2022/08/12 11:36:28;;;;;;;0.00;0.00;;;32.60;61.30;;;31.81;45.99;99660.75;5006946;28;20200;-79
2022/08/12 11:39:18;;;;;;;0.00;0.00;;;31.80;60.90;;;30.96;46.60;99570.91;4992742;28;20223;-80
2022/08/12 11:42:26;;;;;;;0.00;0.00;;;31.60;61.80;;;31.61;47.07;99648.88;4986227;28;20207;-78
2022/08/12 11:45:20;;;;;;;0.00;0.00;;;;;;;31.34;46.41;99586.66;4987129;28;20606;-77
2022/08/12 11:48:10;;;;;;;0.00;0.00;;;;;;;32.26;46.52;99695.84;4981819;28;20227;-77
2022/08/12 11:51:02;;;;;;;0.00;0.00;;;;;;;32.22;47.20;99687.00;4987661;28;20200;-80
2022/08/12 11:53:52;;;;;;;0.00;0.00;;;;;;;32.24;46.57;99667.75;4989830;28;20200;-80
2022/08/12 11:56:48;;;;;;;0.00;0.00;;;;;;;32.10;46.20;99638.91;4987902;28;20211;-81
2022/08/12 11:59:47;;;;;;;0.00;0.00;;;;;;;31.02;45.35;99523.09;4984840;28;20232;-80
2022/08/12 12:02:59;;;;;;;0.00;0.00;;;;;;;32.16;46.53;99649.28;4985763;28;20223;-81
2022/08/12 12:05:47;;;;;;;0.00;0.00;;;32.40;60.70;;;32.65;45.34;99670.22;4989019;28;20230;-79
2022/08/12 12:08:38;;;;;;;0.00;0.00;;;;;;;32.40;45.27;99624.25;4983026;28;20242;-82
2022/08/12 12:11:34;;;;;;;0.00;0.00;;;33.20;61.00;;;32.51;46.17;99636.94;4988019;28;20203;-80
2022/08/12 12:14:36;;;;;;;0.00;0.00;;;;;;;32.38;44.75;99605.25;4982653;28;20210;-81
2022/08/12 12:17:26;;;;;;;0.00;0.00;;;32.40;57.20;;;31.66;44.71;99511.78;4982093;28;20211;-79
2022/08/12 12:20:25;;;;;;;0.28;0.28;;;;;;;33.09;44.99;99649.56;4986572;28;20204;-82
2022/08/12 12:23:18;;;;;;;0.28;0.28;;;33.90;57.80;;;33.26;43.76;99634.22;4979301;28;20204;-84
2022/08/12 12:26:16;;;;;;;0.10;0.10;;;33.50;58.40;;;33.19;45.44;99622.13;4984019;28;20231;-79
2022/08/12 12:29:22;;;;;;;0.00;0.00;;;33.50;60.10;;;33.40;46.82;99652.94;4982514;28;20235;-78
2022/08/12 12:32:31;;;;;;;0.00;0.00;;;;;;;33.21;45.97;99631.06;4988698;28;20216;-81
2022/08/12 12:35:19;;;;;;;0.00;0.00;;;;;;;32.59;44.21;99516.66;4981313;28;20211;-79
2022/08/12 12:38:28;;;;;;;0.00;0.00;;;;;;;33.76;44.73;99631.09;4987346;28;20601;-79
2022/08/12 12:41:16;;;;;;;0.00;0.00;;;;;;;32.66;44.90;99504.09;4984821;28;20227;-78
2022/08/12 12:44:05;;;;;;;0.00;0.00;;;;;;;33.68;45.21;99625.50;4977115;28;20216;-80
2022/08/12 12:47:00;;;;;;;0.20;0.20;;;;;;;34.21;45.50;99654.97;4986997;28;20247;-80
2022/08/12 12:49:48;;;;;;;0.00;0.00;;;34.70;56.70;;;34.19;43.78;99602.97;4981723;28;20243;-79
2022/08/12 12:52:40;;;;;;;0.00;0.00;;;34.20;55.80;;;33.69;45.08;99562.28;4988217;28;20211;-79
2022/08/12 12:55:31;;;;;;;0.00;0.00;;;;;;;34.80;46.40;99681.78;4987957;28;20632;-82
2022/08/12 12:58:23;;;;;;;0.00;0.00;;;;;;;33.31;43.65;99483.94;4987222;28;20231;-84
2022/08/12 13:01:12;;;;;;;0.00;0.00;;;34.20;55.00;;;34.21;42.79;99558.91;4986788;28;20204;-77
2022/08/12 13:04:18;;;;;;;0.00;0.00;;;33.60;53.60;;;33.03;43.18;99444.72;4990216;28;20204;-76
2022/08/12 13:07:09;;;;;;;0.00;0.00;;;;;;;34.32;43.60;99577.91;5027555;23;20244;-83
2022/08/12 13:09:58;;;;;;;0.00;0.00;;;;;;;34.61;44.43;99610.56;4954730;28;20216;-83
2022/08/12 13:12:49;;;;;;;0.00;0.00;;;35.00;55.70;;;34.49;43.49;99567.91;4965188;28;20582;-82
2022/08/12 13:15:38;;;;;;;0.10;0.10;;;;;;;34.66;46.74;99617.31;4962803;28;20204;-83
2022/08/12 13:18:35;;;;;;;0.00;0.00;;;34.70;53.80;;;34.23;42.70;99507.47;4968195;28;20232;-82
2022/08/12 13:21:25;;;;;;;0.00;0.00;;;;;;;34.88;43.54;99580.22;4972647;28;20208;-82
2022/08/12 13:24:24;;;;;;;0.00;0.00;;;;;;;35.03;43.45;99583.22;4977344;28;20212;-81
2022/08/12 13:27:19;;;;;;;0.00;0.00;;;35.10;51.40;;;34.19;41.54;99459.41;4972432;28;20235;-83
2022/08/12 13:30:19;;;;;;;0.00;0.00;;;34.80;51.20;;;33.51;41.98;99396.94;4971390;28;20205;-83
2022/08/12 13:33:13;;;;;;;0.00;0.00;;;;;;;34.42;43.04;99514.69;4971234;28;20213;-83
2022/08/12 13:36:05;;;;;;;0.00;0.00;;;34.50;51.60;;;33.83;41.72;99428.47;4982956;28;20216;-85
2022/08/12 13:39:00;;;;;;;0.00;0.00;;;;;;;34.02;42.83;99472.16;4977502;28;20235;-82
2022/08/12 13:41:48;;;;;;;0.00;0.00;;;;;;;33.57;42.18;99420.97;4977697;28;20193;-82
2022/08/12 13:44:37;;;;;;;0.00;0.00;;;;;;;33.73;42.52;99443.06;4979959;28;20209;-82
2022/08/12 13:47:26;;;;;;;0.00;0.00;;;;;;;34.38;41.95;99502.28;4976606;28;20231;-82
2022/08/12 13:50:15;;;;;;;0.00;0.00;;;;;;;34.90;42.01;99536.09;4966894;28;20204;-83
2022/08/12 13:53:09;;;;;;;0.00;0.00;;;34.50;52.50;;;34.16;42.74;99468.84;4975949;28;20220;-83
2022/08/12 13:56:17;;;;;;;0.00;0.00;;;;;;;33.83;44.04;99475.06;4983262;28;20211;-82
2022/08/12 13:59:07;;;;;;;0.00;0.00;;;34.20;53.70;;;34.19;43.03;99490.47;4974788;28;20232;-82
2022/08/12 14:01:56;;;;;;;0.00;0.00;;;34.60;53.40;;;34.62;42.48;99513.44;4974536;28;20456;-82
2022/08/12 14:04:44;;;;;;;0.00;0.00;;;35.40;56.20;;;35.62;43.51;99605.38;4965274;28;20205;-82
2022/08/12 14:08:04;;;;;;;0.13;0.00;;;35.30;53.70;;;34.63;41.99;99482.19;4980690;28;20233;-83
2022/08/12 14:10:54;;;;;;;0.90;0.45;;;;;;;33.64;42.31;99389.16;4977387;28;20213;-83
2022/08/12 14:13:43;;;;;;;0.00;0.00;;;;;;;35.04;43.44;99548.38;4971635;28;20200;-82
2022/08/12 14:16:51;;;;;;;0.00;0.00;;;;;;;34.40;43.32;99457.19;4975709;28;20212;-82
2022/08/12 14:20:12;;;;;;;0.00;0.00;;;;;;;34.00;42.51;99422.06;4975558;28;20233;-82
2022/08/12 14:22:50;;;;;;;0.00;0.00;;;34.10;54.00;;;33.24;43.83;99419.78;4977154;28;20201;-83